Time;durP1;ratioP1;P1;durP2;ratioP2;P2;SDS_P1;SDS_P2;PMS_P1;PMS_P2;Temp;Humidity;BMP_temperature;BMP_pressure;BME280_temperature;BME280_humidity;BME280_pressure;Samples;Min_cycle;Max_cycle;Signal;HPM_P1;HPM_P2
2022/04/12 00:01:08;;;;;;;5.73;4.40;;;10.20;95.10;;;;;;5053498;28;20706;-58
2022/04/12 00:03:35;;;;;;;5.53;3.83;;;10.20;95.10;;;;;;5053683;28;20611;-58
2022/04/12 00:06:03;;;;;;;5.47;3.90;;;10.20;95.20;;;;;;5053694;28;20282;-57
2022/04/12 00:08:30;;;;;;;5.80;4.33;;;10.20;95.20;;;;;;5053162;28;20206;-57
2022/04/12 00:10:57;;;;;;;6.93;5.07;;;10.10;95.30;;;;;;5053468;28;20286;-58
2022/04/12 00:13:23;;;;;;;7.97;5.20;;;10.20;95.20;;;;;;5053368;28;20685;-57
2022/04/12 00:15:50;;;;;;;14.20;8.47;;;10.20;95.20;;;;;;5053393;28;20209;-58
2022/04/12 00:21:03;;;;;;;27.00;18.07;;;10.10;95.30;;;;;;5053211;28;20221;-57
2022/04/12 00:23:30;;;;;;;8.30;6.37;;;10.10;95.20;;;;;;5053487;28;20228;-58
2022/04/12 00:25:57;;;;;;;8.27;5.40;;;10.10;95.20;;;;;;5053229;28;20210;-58
2022/04/12 00:28:24;;;;;;;3.43;2.83;;;10.10;95.30;;;;;;5053031;28;20205;-57
2022/04/12 00:30:50;;;;;;;7.00;4.33;;;10.10;95.40;;;;;;5053027;28;20245;-58
2022/04/12 00:33:17;;;;;;;6.80;4.77;;;9.90;96.00;;;;;;5053117;28;20252;-58
2022/04/12 00:35:44;;;;;;;8.83;3.90;;;9.90;96.00;;;;;;5052901;28;20205;-57
2022/04/12 00:38:18;;;;;;;7.07;5.30;;;9.90;96.10;;;;;;5052941;28;20225;-58
2022/04/12 00:40:45;;;;;;;6.73;4.40;;;9.90;96.10;;;;;;5052815;28;20291;-58
2022/04/12 00:43:12;;;;;;;6.53;4.73;;;9.90;96.10;;;;;;5052841;28;20209;-57
2022/04/12 00:45:39;;;;;;;4.70;3.73;;;9.90;96.00;;;;;;5052988;28;20205;-58
2022/04/12 00:48:06;;;;;;;7.00;4.50;;;10.00;95.50;;;;;;5052664;28;20584;-58
2022/04/12 00:50:32;;;;;;;8.17;5.97;;;10.00;95.40;;;;;;5053563;28;20283;-58
2022/04/12 00:53:00;;;;;;;5.27;3.80;;;10.10;95.30;;;;;;5053664;28;20206;-58
2022/04/12 00:55:29;;;;;;;7.40;4.80;;;10.20;95.20;;;;;;5052672;28;20220;-57
2022/04/12 00:57:56;;;;;;;5.37;4.30;;;10.10;95.20;;;;;;5052462;28;20209;-57
2022/04/12 01:00:24;;;;;;;9.43;7.23;;;10.20;95.20;;;;;;5052564;28;20208;-58
2022/04/12 01:02:51;;;;;;;5.33;4.13;;;10.20;95.10;;;;;;5052578;28;20308;-58
2022/04/12 01:05:17;;;;;;;8.10;5.43;;;10.20;95.10;;;;;;5052910;28;20267;-58
2022/04/12 01:07:45;;;;;;;5.40;3.27;;;10.20;95.20;;;;;;5052912;28;20588;-58
2022/04/12 01:10:11;;;;;;;7.07;4.50;;;10.20;95.40;;;;;;5053704;28;20689;-58
2022/04/12 01:12:41;;;;;;;10.03;7.10;;;10.10;95.30;;;;;;5053232;28;20237;-58
2022/04/12 01:15:14;;;;;;;8.83;7.40;;;10.10;95.40;;;;;;5053103;28;20201;-57
2022/04/12 01:17:42;;;;;;;8.40;5.23;;;10.00;95.60;;;;;;5052515;28;20657;-57
2022/04/12 01:20:10;;;;;;;10.07;7.93;;;10.00;95.70;;;;;;5052453;28;20209;-57
2022/04/12 01:22:43;;;;;;;5.07;4.40;;;10.00;95.60;;;;;;5052320;28;20232;-57
2022/04/12 01:25:11;;;;;;;5.70;4.17;;;10.00;95.70;;;;;;5052090;28;20670;-57
2022/04/12 01:27:38;;;;;;;6.93;3.90;;;10.00;95.70;;;;;;5051682;28;20747;-57
2022/04/12 01:30:06;;;;;;;6.53;4.20;;;9.90;96.50;;;;;;5051918;28;20205;-57
2022/04/12 01:32:32;;;;;;;5.33;3.23;;;9.80;96.70;;;;;;5052078;28;20233;-57
2022/04/12 01:34:59;;;;;;;5.63;3.47;;;9.70;96.90;;;;;;5052126;28;20213;-58
2022/04/12 01:37:26;;;;;;;3.20;2.87;;;9.60;97.20;;;;;;5051829;28;20232;-57
2022/04/12 01:39:52;;;;;;;6.00;2.90;;;9.50;97.40;;;;;;5052037;28;20209;-57
2022/04/12 01:42:21;;;;;;;5.23;3.03;;;9.30;97.60;;;;;;5052185;28;20234;-58
2022/04/12 01:44:47;;;;;;;4.13;3.03;;;9.20;97.90;;;;;;5052054;28;20213;-57
2022/04/12 01:47:15;;;;;;;4.90;3.13;;;9.20;97.90;;;;;;5051512;28;20565;-57
2022/04/12 01:49:42;;;;;;;5.03;3.47;;;9.20;98.00;;;;;;5051931;28;20255;-57
2022/04/12 01:52:10;;;;;;;4.03;2.67;;;9.10;98.40;;;;;;5051736;28;20237;-57
2022/04/12 01:54:36;;;;;;;5.70;2.90;;;9.10;98.20;;;;;;5051826;28;20305;-57
2022/04/12 01:57:03;;;;;;;4.23;2.90;;;9.10;98.30;;;;;;5051824;28;20236;-57
2022/04/12 01:59:32;;;;;;;4.80;3.30;;;9.00;98.40;;;;;;5051993;28;20582;-58
2022/04/12 02:01:59;;;;;;;4.73;3.13;;;9.00;98.50;;;;;;5051951;28;20226;-58
2022/04/12 02:04:25;;;;;;;3.87;3.10;;;8.90;98.60;;;;;;5051673;28;20748;-58
2022/04/12 02:06:52;;;;;;;5.83;3.30;;;8.90;98.70;;;;;;5052507;28;20214;-57
2022/04/12 02:09:19;;;;;;;4.37;3.00;;;8.90;98.80;;;;;;5055739;28;20213;-58
2022/04/12 02:11:45;;;;;;;3.60;3.00;;;8.90;98.90;;;;;;5055642;28;20704;-58
2022/04/12 02:14:12;;;;;;;5.23;3.23;;;8.80;99.00;;;;;;5055777;28;20271;-58
2022/04/12 02:16:40;;;;;;;4.30;2.80;;;8.80;99.20;;;;;;5055580;28;20205;-58
2022/04/12 02:19:07;;;;;;;5.63;3.03;;;8.70;99.20;;;;;;5055783;28;20205;-58
2022/04/12 02:21:33;;;;;;;4.63;3.40;;;8.80;99.30;;;;;;5055649;28;20225;-58
2022/04/12 02:24:00;;;;;;;5.93;3.87;;;8.80;99.30;;;;;;5055473;28;20282;-58
2022/04/12 02:26:26;;;;;;;4.07;2.90;;;8.80;99.20;;;;;;5055394;28;20213;-57
2022/04/12 02:28:53;;;;;;;4.53;3.17;;;8.80;99.20;;;;;;5055707;28;20259;-57
2022/04/12 02:31:20;;;;;;;5.17;3.70;;;8.80;99.30;;;;;;5055446;28;20232;-58
2022/04/12 02:33:48;;;;;;;7.77;3.60;;;8.80;99.40;;;;;;5055544;28;20201;-58
2022/04/12 02:36:14;;;;;;;5.90;3.50;;;8.60;99.50;;;;;;5055353;28;20209;-58
2022/04/12 02:38:41;;;;;;;5.97;3.60;;;8.70;99.60;;;;;;5054948;28;20255;-58
2022/04/12 02:41:08;;;;;;;5.00;3.77;;;8.70;99.60;;;;;;5055385;28;20271;-58
2022/04/12 02:43:34;;;;;;;5.20;3.20;;;8.70;99.80;;;;;;5055132;28;20233;-58
2022/04/12 02:46:02;;;;;;;4.70;3.17;;;8.70;99.90;;;;;;5055270;28;20288;-58
2022/04/12 02:48:28;;;;;;;3.93;3.10;;;8.70;99.90;;;;;;5055021;28;20206;-58
2022/04/12 02:50:57;;;;;;;7.47;3.90;;;8.60;99.90;;;;;;5054833;28;20682;-56
2022/04/12 02:53:23;;;;;;;6.10;3.00;;;8.50;99.90;;;;;;5054987;28;20209;-58
2022/04/12 02:55:50;;;;;;;3.60;2.90;;;8.50;99.90;;;;;;5055190;28;20205;-58
2022/04/12 02:58:17;;;;;;;5.30;2.90;;;8.40;99.90;;;;;;5054954;28;20209;-58
2022/04/12 03:00:44;;;;;;;5.03;3.07;;;8.40;99.90;;;;;;5055055;28;20689;-59
2022/04/12 03:03:11;;;;;;;3.50;2.90;;;8.50;99.90;;;;;;5055038;28;20240;-58
2022/04/12 03:05:38;;;;;;;4.87;3.00;;;8.50;99.90;;;;;;5054737;28;20213;-57
2022/04/12 03:08:07;;;;;;;4.87;3.63;;;8.50;99.90;;;;;;5054741;28;20213;-57
2022/04/12 03:10:33;;;;;;;6.20;3.97;;;8.60;99.90;;;;;;5054802;28;20286;-58
2022/04/12 03:13:00;;;;;;;6.47;3.00;;;8.70;99.90;;;;;;5054831;28;20561;-58
2022/04/12 03:15:27;;;;;;;4.37;3.23;;;8.70;99.90;;;;;;5054757;28;20638;-58
2022/04/12 03:17:54;;;;;;;5.07;2.93;;;8.70;99.90;;;;;;5054715;28;20263;-58
2022/04/12 03:20:21;;;;;;;5.20;3.50;;;8.80;99.90;;;;;;5054771;28;20213;-57
2022/04/12 03:22:47;;;;;;;3.80;3.20;;;8.60;99.90;;;;;;5054811;28;20226;-57
2022/04/12 03:25:15;;;;;;;5.27;3.40;;;8.60;99.90;;;;;;5054888;28;20213;-57
2022/04/12 03:27:42;;;;;;;6.30;3.30;;;8.40;99.90;;;;;;5054317;28;20202;-56
2022/04/12 03:30:09;;;;;;;7.33;3.40;;;8.20;99.90;;;;;;5054509;28;20263;-59
2022/04/12 03:32:36;;;;;;;6.30;3.53;;;8.10;99.90;;;;;;5054190;28;20645;-58
2022/04/12 03:35:03;;;;;;;4.53;3.37;;;8.10;99.90;;;;;;5054291;28;20210;-59
2022/04/12 03:37:30;;;;;;;5.27;3.60;;;8.00;99.90;;;;;;5054183;28;20255;-59
2022/04/12 03:39:56;;;;;;;6.00;3.77;;;7.90;99.90;;;;;;5054169;28;20206;-59
2022/04/12 03:42:24;;;;;;;5.63;4.00;;;7.80;99.90;;;;;;5054055;28;20320;-59
2022/04/12 03:44:52;;;;;;;6.03;4.40;;;7.70;99.90;;;;;;5054112;28;20258;-59
2022/04/12 03:47:18;;;;;;;8.20;4.77;;;7.60;99.90;;;;;;5053720;28;20297;-59
2022/04/12 03:49:45;;;;;;;5.93;3.97;;;7.60;99.90;;;;;;5054255;28;20259;-58
2022/04/12 03:52:12;;;;;;;6.67;3.50;;;7.60;99.90;;;;;;5054040;28;20260;-58
2022/04/12 03:54:38;;;;;;;5.23;3.27;;;7.60;99.90;;;;;;5054101;28;20534;-58
2022/04/12 03:57:06;;;;;;;5.47;3.20;;;7.50;99.90;;;;;;5054044;28;20236;-58
2022/04/12 03:59:34;;;;;;;5.30;3.20;;;7.50;99.90;;;;;;5054658;28;20206;-58
2022/04/12 04:02:00;;;;;;;7.13;3.67;;;7.40;99.90;;;;;;5054539;28;20622;-58
2022/04/12 04:04:27;;;;;;;7.20;3.80;;;7.40;99.90;;;;;;5054136;28;20617;-57
2022/04/12 04:06:54;;;;;;;8.23;4.93;;;7.60;99.90;;;;;;5053687;28;20220;-57
2022/04/12 04:09:21;;;;;;;5.33;3.67;;;7.70;99.90;;;;;;5053897;28;20644;-58
2022/04/12 04:11:48;;;;;;;5.73;4.17;;;7.80;99.90;;;;;;5053586;28;20229;-58
2022/04/12 04:14:15;;;;;;;4.03;3.33;;;7.80;99.90;;;;;;5053637;28;20209;-58
2022/04/12 04:16:43;;;;;;;5.73;3.57;;;7.80;99.90;;;;;;5053216;28;20267;-57
2022/04/12 04:19:10;;;;;;;6.43;3.67;;;7.90;99.90;;;;;;5053715;28;20210;-58
2022/04/12 04:21:36;;;;;;;4.93;3.03;;;7.80;99.90;;;;;;5053459;28;20351;-57
2022/04/12 04:24:04;;;;;;;4.97;3.70;;;7.80;99.90;;;;;;5053731;28;20297;-57
2022/04/12 04:26:31;;;;;;;5.00;3.13;;;7.80;99.90;;;;;;5053361;28;20232;-58
2022/04/12 04:28:58;;;;;;;5.83;3.53;;;7.80;99.90;;;;;;5052963;28;20263;-58
2022/04/12 04:31:24;;;;;;;5.93;3.20;;;7.80;99.90;;;;;;5052949;28;20237;-58
2022/04/12 04:33:52;;;;;;;6.80;3.63;;;7.70;99.90;;;;;;5053359;28;20209;-57
2022/04/12 04:36:19;;;;;;;4.73;3.60;;;7.60;99.90;;;;;;5053187;28;20582;-58
2022/04/12 04:38:46;;;;;;;5.17;3.17;;;7.50;99.90;;;;;;5052852;28;20206;-57
2022/04/12 04:41:12;;;;;;;9.40;3.80;;;7.60;99.90;;;;;;5052751;28;20277;-59
2022/04/12 04:43:39;;;;;;;5.03;3.90;;;7.70;99.90;;;;;;5052821;28;20251;-59
2022/04/12 04:46:06;;;;;;;4.33;3.20;;;7.70;99.90;;;;;;5053486;28;20259;-58
2022/04/12 04:48:32;;;;;;;4.90;3.43;;;7.70;99.90;;;;;;5052536;28;20701;-58
2022/04/12 04:51:00;;;;;;;6.23;3.77;;;7.70;99.90;;;;;;5052778;28;20709;-58
2022/04/12 04:53:27;;;;;;;4.87;3.10;;;7.60;99.90;;;;;;5052779;28;20304;-58
2022/04/12 04:55:54;;;;;;;4.43;3.30;;;7.60;99.90;;;;;;5053245;28;20630;-60
2022/04/12 04:58:20;;;;;;;4.53;3.27;;;7.60;99.90;;;;;;5052397;28;20267;-58
2022/04/12 05:00:47;;;;;;;3.90;3.23;;;7.60;99.90;;;;;;5052493;28;20214;-58
2022/04/12 05:03:14;;;;;;;3.73;3.00;;;7.60;99.90;;;;;;5052754;28;20201;-60
2022/04/12 05:05:40;;;;;;;5.90;3.27;;;7.60;99.90;;;;;;5052513;28;20279;-57
2022/04/12 05:08:09;;;;;;;3.80;3.20;;;7.70;99.90;;;;;;5052164;28;20206;-58
2022/04/12 05:10:35;;;;;;;5.30;3.57;;;7.70;99.90;;;;;;5052198;28;20209;-58
2022/04/12 05:13:03;;;;;;;5.10;2.93;;;7.70;99.90;;;;;;5052283;28;20336;-60
2022/04/12 05:15:30;;;;;;;4.93;3.43;;;7.80;99.90;;;;;;5052552;28;20206;-58
2022/04/12 05:17:57;;;;;;;5.93;3.63;;;7.90;99.90;;;;;;5052006;28;20206;-58
2022/04/12 05:20:25;;;;;;;6.47;3.47;;;8.00;99.90;;;;;;5052301;28;20282;-57
2022/04/12 05:22:52;;;;;;;5.93;3.93;;;8.20;99.90;;;;;;5052204;28;20253;-58
2022/04/12 05:25:21;;;;;;;4.03;3.47;;;8.20;99.90;;;;;;5052109;28;20206;-58
2022/04/12 05:27:48;;;;;;;5.80;4.00;;;8.30;99.90;;;;;;5051915;28;20255;-58
2022/04/12 05:30:16;;;;;;;3.67;2.93;;;8.40;99.90;;;;;;5052251;28;20255;-61
2022/04/12 05:32:43;;;;;;;4.77;3.37;;;8.50;99.90;;;;;;5052013;28;20234;-58
2022/04/12 05:35:11;;;;;;;4.00;3.07;;;8.60;99.90;;;;;;5052006;28;20209;-57
2022/04/12 05:37:45;;;;;;;7.67;3.17;;;8.80;99.90;;;;;;5051714;28;20239;-57
2022/04/12 05:40:13;;;;;;;5.57;3.07;;;8.90;99.90;;;;;;5052059;28;20669;-58
2022/04/12 05:42:42;;;;;;;5.37;3.10;;;9.10;99.90;;;;;;5050856;28;20230;-58
2022/04/12 05:45:10;;;;;;;5.83;3.10;;;9.70;99.90;;;;;;5051869;28;20209;-58
2022/04/12 05:47:42;;;;;;;7.20;3.77;;;10.80;99.90;;;;;;5051569;28;20267;-58
2022/04/12 05:50:09;;;;;;;4.47;3.47;;;11.80;98.90;;;;;;5051707;28;20205;-58
2022/04/12 05:52:38;;;;;;;4.60;3.33;;;12.90;97.50;;;;;;5051636;28;20259;-64
2022/04/12 05:55:06;;;;;;;3.97;3.03;;;14.20;95.20;;;;;;5036329;28;20709;-57
2022/04/12 05:57:33;;;;;;;4.57;3.33;;;14.90;93.90;;;;;;5031551;28;20210;-57
2022/04/12 06:00:01;;;;;;;4.67;3.07;;;15.40;92.30;;;;;;5031577;28;20256;-57
2022/04/12 06:02:27;;;;;;;6.03;2.80;;;15.60;91.70;;;;;;5031540;28;20268;-56
2022/04/12 06:04:54;;;;;;;4.20;3.00;;;15.80;91.10;;;;;;5030896;28;20209;-56
2022/04/12 06:07:21;;;;;;;4.93;2.83;;;16.40;90.40;;;;;;5031295;28;20209;-57
2022/04/12 06:09:47;;;;;;;4.95;2.88;;;17.10;88.60;;;;;;5031840;28;20264;-57
2022/04/12 06:12:14;;;;;;;7.63;3.25;;;17.60;88.40;;;;;;5031405;28;20229;-57
2022/04/12 06:14:40;;;;;;;5.57;3.65;;;18.40;86.60;;;;;;5031387;28;20210;-57
2022/04/12 06:17:11;;;;;;;8.90;3.15;;;19.10;82.10;;;;;;5030745;28;20210;-66
2022/04/12 06:19:38;;;;;;;24.63;13.07;;;19.60;80.80;;;;;;5031400;28;20218;-62
2022/04/12 06:22:05;;;;;;;7.68;3.45;;;20.20;78.20;;;;;;5031369;28;20260;-62
2022/04/12 06:24:31;;;;;;;5.65;3.53;;;21.10;77.30;;;;;;5031302;28;20202;-63
2022/04/12 06:26:58;;;;;;;6.00;3.05;;;21.00;76.20;;;;;;5031242;28;20206;-64
2022/04/12 06:29:25;;;;;;;9.27;3.28;;;21.00;77.10;;;;;;5031232;28;20256;-61
2022/04/12 06:31:52;;;;;;;7.75;2.92;;;21.60;73.40;;;;;;5030997;28;20714;-61
2022/04/12 06:34:20;;;;;;;4.55;3.00;;;22.00;73.00;;;;;;5031830;28;20211;-63
2022/04/12 06:36:47;;;;;;;6.32;3.08;;;22.50;70.20;;;;;;5031563;28;20210;-62
2022/04/12 06:39:13;;;;;;;4.63;3.20;;;21.70;72.20;;;;;;5031335;28;20214;-61
2022/04/12 06:41:40;;;;;;;6.53;3.50;;;21.70;70.80;;;;;;5031224;28;20233;-61
2022/04/12 06:44:07;;;;;;;5.22;3.20;;;21.60;72.00;;;;;;5031297;28;20211;-61
2022/04/12 06:46:33;;;;;;;4.72;2.92;;;21.30;71.30;;;;;;5031099;28;20253;-61
2022/04/12 06:49:00;;;;;;;4.00;2.78;;;21.30;70.60;;;;;;5031117;28;20237;-62
2022/04/12 06:51:28;;;;;;;4.53;2.55;;;21.60;66.70;;;;;;5031283;28;20223;-61
2022/04/12 06:53:55;;;;;;;5.07;2.80;;;21.60;66.10;;;;;;5033556;28;20226;-61
2022/04/12 06:56:21;;;;;;;3.95;2.78;;;21.30;66.20;;;;;;5034931;28;20264;-62
2022/04/12 06:58:48;;;;;;;7.18;2.83;;;21.20;66.40;;;;;;5035240;28;20240;-62
2022/04/12 07:01:15;;;;;;;5.15;2.70;;;21.30;66.40;;;;;;5034566;28;20249;-62
2022/04/12 07:03:41;;;;;;;4.22;2.63;;;21.40;65.30;;;;;;5034820;28;20280;-62
2022/04/12 07:06:08;;;;;;;4.55;2.65;;;22.00;65.50;;;;;;5035126;28;20284;-62
2022/04/12 07:08:36;;;;;;;4.15;2.40;;;22.80;64.30;;;;;;5034497;28;20210;-62
2022/04/12 07:11:02;;;;;;;4.38;2.60;;;23.80;61.70;;;;;;5034658;28;20230;-62
2022/04/12 07:13:29;;;;;;;5.15;2.58;;;24.70;59.40;;;;;;5034462;28;20222;-57
2022/04/12 07:15:56;;;;;;;4.72;2.25;;;25.00;58.40;;;;;;5034440;28;20272;-57
2022/04/12 07:18:22;;;;;;;4.22;2.30;;;25.20;57.20;;;;;;5034487;28;20257;-58
2022/04/12 07:20:49;;;;;;;3.35;2.40;;;25.30;56.60;;;;;;5034524;28;20260;-57
2022/04/12 07:23:16;;;;;;;6.07;2.60;;;25.00;56.10;;;;;;5034546;28;20202;-57
2022/04/12 07:25:44;;;;;;;5.30;2.75;;;24.90;56.40;;;;;;5034439;28;20206;-57
2022/04/12 07:28:10;;;;;;;3.17;2.15;;;24.70;56.50;;;;;;5034158;28;20207;-57
2022/04/12 07:30:38;;;;;;;5.63;2.30;;;24.40;56.50;;;;;;5034551;28;20206;-57
2022/04/12 07:33:05;;;;;;;3.72;2.33;;;23.60;57.40;;;;;;5034401;28;20222;-57
2022/04/12 07:35:31;;;;;;;2.80;2.28;;;23.40;57.60;;;;;;5034000;28;20210;-57
2022/04/12 07:37:58;;;;;;;4.55;2.20;;;22.80;58.60;;;;;;5033796;28;20202;-57
2022/04/12 07:40:25;;;;;;;4.78;2.42;;;22.20;59.70;;;;;;5034075;28;20238;-57
2022/04/12 07:42:53;;;;;;;5.30;2.53;;;22.00;60.00;;;;;;5034303;28;20600;-57
2022/04/12 07:45:19;;;;;;;3.67;2.25;;;21.80;60.60;;;;;;5034020;28;20202;-58
2022/04/12 07:47:46;;;;;;;6.13;2.40;;;21.40;61.70;;;;;;5033596;28;20665;-59
2022/04/12 07:50:13;;;;;;;3.03;2.08;;;21.10;62.00;;;;;;5033976;28;20652;-62
2022/04/12 07:52:40;;;;;;;2.78;2.20;;;21.10;62.30;;;;;;5033666;28;20597;-59
2022/04/12 07:55:07;;;;;;;2.60;1.88;;;20.90;62.70;;;;;;5033787;28;20252;-60
2022/04/12 07:57:34;;;;;;;2.92;2.28;;;21.00;62.80;;;;;;5033488;28;20214;-57
2022/04/12 08:00:02;;;;;;;3.60;2.33;;;21.20;62.70;;;;;;5034110;28;20203;-57
2022/04/12 08:02:28;;;;;;;5.53;3.42;;;21.60;62.40;;;;;;5034085;28;20218;-57
2022/04/12 08:04:55;;;;;;;4.78;2.78;;;22.10;62.00;;;;;;5033022;28;20236;-57
2022/04/12 08:07:22;;;;;;;4.07;2.40;;;23.00;60.00;;;;;;5033380;28;20316;-57
2022/04/12 08:09:49;;;;;;;4.65;2.13;;;23.60;58.80;;;;;;5033617;28;20210;-57
2022/04/12 08:12:16;;;;;;;2.13;1.85;;;23.80;58.20;;;;;;5034130;28;20273;-57
2022/04/12 08:14:42;;;;;;;4.90;2.83;;;23.40;58.30;;;;;;5034454;28;20210;-57
2022/04/12 08:17:10;;;;;;;3.75;2.50;;;22.50;59.40;;;;;;5033478;28;20635;-57
2022/04/12 08:19:38;;;;;;;2.78;2.03;;;21.80;60.60;;;;;;5033820;28;20214;-57
2022/04/12 08:22:04;;;;;;;3.38;2.00;;;21.10;62.00;;;;;;5033583;28;20222;-57
2022/04/12 08:24:31;;;;;;;2.55;1.90;;;20.40;63.90;;;;;;5033386;28;20198;-57
2022/04/12 08:26:58;;;;;;;5.93;2.13;;;19.90;64.50;;;;;;5033487;28;20670;-57
2022/04/12 08:29:24;;;;;;;3.47;2.00;;;19.70;65.40;;;;;;5033173;28;20720;-56
2022/04/12 08:31:52;;;;;;;4.18;2.10;;;19.40;66.10;;;;;;5033084;28;20257;-57
2022/04/12 08:34:20;;;;;;;4.07;2.45;;;19.20;66.90;;;;;;5033313;28;20226;-57
2022/04/12 08:36:47;;;;;;;3.25;1.90;;;19.20;67.20;;;;;;5033324;28;20256;-57
2022/04/12 08:39:14;;;;;;;2.30;2.00;;;19.10;66.90;;;;;;5032903;28;20268;-57
2022/04/12 08:41:41;;;;;;;2.85;2.15;;;19.00;68.10;;;;;;5033011;28;20337;-57
2022/04/12 08:44:09;;;;;;;4.75;2.30;;;19.00;68.40;;;;;;5033579;28;20202;-57
2022/04/12 08:46:37;;;;;;;3.67;1.90;;;19.00;68.20;;;;;;5033095;28;20205;-57
2022/04/12 08:49:04;;;;;;;3.13;1.88;;;18.90;68.30;;;;;;5032702;28;20210;-57
2022/04/12 08:51:32;;;;;;;5.20;2.08;;;18.90;68.30;;;;;;5032523;28;20233;-57
2022/04/12 08:53:59;;;;;;;3.33;1.98;;;18.90;68.60;;;;;;5032976;28;20230;-57
2022/04/12 08:56:27;;;;;;;3.70;1.80;;;18.90;68.30;;;;;;5032878;28;20504;-57
2022/04/12 08:58:54;;;;;;;3.78;1.65;;;18.80;68.70;;;;;;5032441;28;20272;-57
2022/04/12 09:01:20;;;;;;;2.35;1.73;;;18.80;69.40;;;;;;5032528;28;20222;-57
2022/04/12 09:03:47;;;;;;;2.97;1.85;;;19.10;68.50;;;;;;5032278;28;20728;-57
2022/04/12 09:06:14;;;;;;;3.53;1.50;;;19.40;68.10;;;;;;5032783;28;20724;-57
2022/04/12 09:08:43;;;;;;;3.45;1.50;;;19.50;68.20;;;;;;5032505;28;20206;-57
2022/04/12 09:11:09;;;;;;;2.95;2.05;;;19.40;67.50;;;;;;5031841;28;20801;-58
2022/04/12 09:13:36;;;;;;;2.13;1.70;;;19.50;67.90;;;;;;5050671;28;20694;-59
2022/04/12 09:16:08;;;;;;;6.38;2.50;;;19.80;67.10;;;;;;5052382;28;20216;-59
2022/04/12 09:18:37;;;;;;;3.95;2.33;;;20.10;66.80;;;;;;5052430;28;20206;-59
2022/04/12 09:21:16;;;;;;;2.85;1.73;;;20.30;66.70;;;;;;5053163;28;20639;-59
2022/04/12 09:23:45;;;;;;;3.03;1.85;;;20.60;66.20;;;;;;5052593;28;20224;-60
2022/04/12 09:26:17;;;;;;;3.10;1.67;;;20.80;65.10;;;;;;5053562;28;20716;-61
2022/04/12 09:28:44;;;;;;;2.20;1.50;;;20.70;65.30;;;;;;5053318;28;20301;-60
2022/04/12 09:31:12;;;;;;;3.85;1.88;;;20.70;64.70;;;;;;5053840;28;20225;-59
2022/04/12 09:33:40;;;;;;;3.15;1.42;;;20.50;65.40;;;;;;5053474;28;20225;-63
2022/04/12 09:36:07;;;;;;;3.70;1.40;;;20.30;66.50;;;;;;5043344;28;20211;-58
2022/04/12 09:38:35;;;;;;;2.17;1.35;;;20.40;66.90;;;;;;5063788;28;20637;-60
2022/04/12 09:41:17;;;;;;;3.30;1.38;;;20.40;65.90;;;;;;5072495;28;20229;-60
2022/04/12 09:43:55;;;;;;;5.63;1.77;;;20.50;65.80;;;;;;5071454;28;20212;-63
2022/04/12 09:46:22;;;;;;;3.35;1.52;;;20.60;66.00;;;;;;5070968;28;20209;-60
2022/04/12 09:48:50;;;;;;;4.55;1.70;;;20.80;65.20;;;;;;5071631;28;20255;-66
2022/04/12 09:51:18;;;;;;;2.53;1.60;;;20.80;65.30;;;;;;5071572;28;20700;-59
2022/04/12 09:53:46;;;;;;;5.82;2.22;;;20.70;63.70;;;;;;5071802;28;20228;-58
2022/04/12 09:56:18;;;;;;;2.85;1.55;;;20.40;64.90;;;;;;5069970;28;20213;-59
2022/04/12 09:58:47;;;;;;;3.53;1.58;;;20.40;64.90;;;;;;5070677;28;20213;-58
2022/04/12 10:01:14;;;;;;;4.20;1.60;;;20.40;64.70;;;;;;5070524;28;20311;-58
2022/04/12 10:03:45;;;;;;;2.97;1.60;;;20.50;64.40;;;;;;5071817;28;20258;-60
2022/04/12 10:06:14;;;;;;;3.28;1.10;;;20.50;64.00;;;;;;5071658;28;20211;-59
2022/04/12 10:08:42;;;;;;;2.75;1.55;;;20.60;64.10;;;;;;5070793;28;20233;-57
2022/04/12 10:11:11;;;;;;;4.60;1.40;;;20.70;64.20;;;;;;5071109;28;20306;-60
2022/04/12 10:13:40;;;;;;;5.75;1.90;;;20.80;62.40;;;;;;5071300;28;20228;-59
2022/04/12 10:16:08;;;;;;;2.97;1.70;;;20.80;61.70;;;;;;5071366;28;20204;-59
2022/04/12 10:18:35;;;;;;;3.75;1.85;;;20.90;61.60;;;;;;5071203;28;20211;-60
2022/04/12 10:21:02;;;;;;;5.88;2.92;;;20.80;61.70;;;;;;5071507;28;20228;-58
2022/04/12 10:23:31;;;;;;;3.90;2.13;;;20.90;62.20;;;;;;5069125;28;20798;-62
2022/04/12 10:25:59;;;;;;;3.55;2.30;;;20.90;62.70;;;;;;5071340;28;20235;-61
2022/04/12 10:28:28;;;;;;;2.22;1.50;;;20.90;63.20;;;;;;5073035;28;20205;-60
2022/04/12 10:31:05;;;;;;;3.67;1.70;;;20.80;62.90;;;;;;5075468;28;20225;-58
2022/04/12 10:33:33;;;;;;;4.22;1.40;;;21.00;62.70;;;;;;5075024;28;20220;-59
2022/04/12 10:36:02;;;;;;;3.50;1.30;;;21.10;62.40;;;;;;5075186;28;20205;-58
2022/04/12 10:38:40;;;;;;;2.22;1.63;;;21.20;61.80;;;;;;5074513;28;20205;-59
2022/04/12 10:41:29;;;;;;;2.15;1.13;;;21.40;62.00;;;;;;5074765;28;20225;-58
2022/04/12 10:43:57;;;;;;;1.73;1.08;;;21.60;61.20;;;;;;5074755;28;20314;-58
2022/04/12 10:46:28;;;;;;;9.35;5.38;;;21.70;61.30;;;;;;5074929;28;20335;-58
2022/04/12 10:48:56;;;;;;;4.63;3.20;;;21.70;60.60;;;;;;5075055;28;20209;-58
2022/04/12 10:51:39;;;;;;;4.18;2.25;;;21.90;59.90;;;;;;5074935;28;20331;-60
2022/04/12 10:54:07;;;;;;;1.98;1.30;;;21.90;59.50;;;;;;5074875;28;20232;-58
2022/04/12 10:56:34;;;;;;;2.72;1.30;;;21.90;59.60;;;;;;5074577;28;20689;-58
2022/04/12 10:59:01;;;;;;;1.98;1.17;;;21.70;59.40;;;;;;5074774;28;20208;-58
2022/04/12 11:01:30;;;;;;;6.85;3.30;;;21.60;59.70;;;;;;5074599;28;20228;-58
2022/04/12 11:03:58;;;;;;;2.28;1.33;;;21.70;60.40;;;;;;5074553;28;20204;-57
2022/04/12 11:06:26;;;;;;;3.10;1.67;;;21.80;59.50;;;;;;5074401;28;20209;-58
2022/04/12 11:08:54;;;;;;;5.13;2.78;;;21.80;59.50;;;;;;5074324;28;20288;-58
2022/04/12 11:11:29;;;;;;;4.63;2.45;;;22.00;59.30;;;;;;5074428;28;20224;-59
2022/04/12 11:14:16;;;;;;;1.75;1.00;;;22.10;59.60;;;;;;5074215;28;20236;-59
2022/04/12 11:16:50;;;;;;;1.42;0.90;;;22.10;59.70;;;;;;5073952;28;20627;-58
2022/04/12 11:19:21;;;;;;;2.35;0.93;;;22.20;59.80;;;;;;5074178;28;20295;-58
2022/04/12 11:22:01;;;;;;;3.63;1.63;;;22.20;59.50;;;;;;5073966;28;20792;-58
2022/04/12 11:24:28;;;;;;;2.00;1.38;;;22.30;59.10;;;;;;5074235;28;20254;-59
2022/04/12 11:27:05;;;;;;;2.97;1.27;;;22.40;58.70;;;;;;5074251;28;20210;-57
2022/04/12 11:29:33;;;;;;;3.00;1.92;;;22.40;59.30;;;;;;5073636;28;20204;-57
2022/04/12 11:32:01;;;;;;;2.50;1.30;;;22.50;59.50;;;;;;5073872;28;20722;-57
2022/04/12 11:34:29;;;;;;;4.38;2.22;;;22.50;59.80;;;;;;5074157;28;20228;-57
2022/04/12 11:37:00;;;;;;;2.42;1.50;;;22.70;59.40;;;;;;5074256;28;20233;-57
2022/04/12 11:39:29;;;;;;;1.85;0.82;;;22.90;59.00;;;;;;5072456;28;20255;-57
2022/04/12 11:42:00;;;;;;;1.60;1.20;;;22.90;58.00;;;;;;5074555;28;20237;-58
2022/04/12 11:44:27;;;;;;;2.33;1.30;;;22.80;58.60;;;;;;5073851;28;20620;-57
2022/04/12 11:47:00;;;;;;;1.73;1.00;;;22.90;58.50;;;;;;5074259;28;20287;-58
2022/04/12 11:49:32;;;;;;;2.15;1.00;;;22.80;58.40;;;;;;5073851;28;20205;-57
2022/04/12 11:52:01;;;;;;;2.00;0.90;;;22.80;58.50;;;;;;5073694;28;20225;-58
2022/04/12 11:54:29;;;;;;;4.95;2.17;;;22.80;58.10;;;;;;5073678;28;20252;-57
2022/04/12 11:57:04;;;;;;;3.30;0.82;;;23.00;58.30;;;;;;5073533;28;20213;-58
2022/04/12 11:59:32;;;;;;;2.42;1.30;;;23.10;58.20;;;;;;5073557;28;20204;-58
2022/04/12 12:02:01;;;;;;;2.33;0.88;;;23.30;57.60;;;;;;5073548;28;20289;-57
2022/04/12 12:04:29;;;;;;;2.22;1.40;;;23.30;58.00;;;;;;5073597;28;20230;-57
2022/04/12 12:06:59;;;;;;;1.17;0.80;;;23.40;57.20;;;;;;5073366;28;20227;-58
2022/04/12 12:09:26;;;;;;;1.85;1.10;;;23.60;57.30;;;;;;5073158;28;20215;-56
2022/04/12 12:11:53;;;;;;;2.75;1.40;;;23.80;57.40;;;;;;5073565;28;20251;-56
2022/04/12 12:14:21;;;;;;;2.60;1.05;;;24.00;56.20;;;;;;5073014;28;20224;-56
2022/04/12 12:17:00;;;;;;;2.20;1.15;;;24.00;56.20;;;;;;5073723;28;20244;-56
2022/04/12 12:19:27;;;;;;;3.58;1.63;;;23.90;56.10;;;;;;5073191;28;20228;-56
2022/04/12 12:21:54;;;;;;;2.72;2.15;;;23.90;56.20;;;;;;5073116;28;20276;-56
2022/04/12 12:24:22;;;;;;;1.52;1.00;;;23.90;56.20;;;;;;5073246;28;20208;-57
2022/04/12 12:26:54;;;;;;;3.85;2.30;;;24.00;56.00;;;;;;5073286;28;20213;-57
2022/04/12 12:29:22;;;;;;;2.95;1.27;;;24.20;55.90;;;;;;5072790;28;20736;-57
2022/04/12 12:31:49;;;;;;;1.17;1.00;;;24.30;55.70;;;;;;5073091;28;20229;-59
2022/04/12 12:34:28;;;;;;;2.60;1.08;;;24.30;55.20;;;;;;5072966;28;20217;-58
2022/04/12 12:36:55;;;;;;;1.90;1.20;;;24.20;55.00;;;;;;5072965;28;20209;-58
2022/04/12 12:39:27;;;;;;;1.40;0.95;;;24.30;55.00;;;;;;5072481;28;20266;-58
2022/04/12 12:41:57;;;;;;;1.73;1.00;;;24.40;54.70;;;;;;5072659;28;20327;-58
2022/04/12 12:44:24;;;;;;;4.25;1.00;;;24.50;55.00;;;;;;5072802;28;20283;-58
2022/04/12 12:46:56;;;;;;;1.67;0.95;;;24.50;54.90;;;;;;5072560;28;20613;-58
2022/04/12 12:49:23;;;;;;;1.48;0.85;;;24.50;55.20;;;;;;5072389;28;20665;-58
2022/04/12 12:51:50;;;;;;;3.80;1.05;;;24.60;54.40;;;;;;5072161;28;20704;-58
2022/04/12 12:54:18;;;;;;;1.90;0.95;;;24.70;54.20;;;;;;5072651;28;20221;-58
2022/04/12 12:56:48;;;;;;;1.52;0.82;;;24.70;53.90;;;;;;5072510;28;20205;-58